Time;durP1;ratioP1;P1;durP2;ratioP2;P2;SDS_P1;SDS_P2;PMS_P1;PMS_P2;Temp;Humidity;BMP_temperature;BMP_pressure;BME280_temperature;BME280_humidity;BME280_pressure;Samples;Min_cycle;Max_cycle;Signal;HPM_P1;HPM_P2
2022/12/31 00:00:29;;;;;;;4.35;2.30;;;;;;;12.12;100.00;100264.44;4910292;29;20021;-61
2022/12/31 00:02:54;;;;;;;3.58;2.13;;;;;;;12.13;100.00;100262.69;4910424;29;20016;-61
2022/12/31 00:05:21;;;;;;;3.80;2.28;;;;;;;12.12;100.00;100258.31;4910179;29;20094;-61
2022/12/31 00:07:46;;;;;;;3.13;1.95;;;;;;;12.13;100.00;100254.84;4909137;29;20024;-61
2022/12/31 00:10:12;;;;;;;3.20;1.92;;;;;;;12.13;100.00;100255.72;4910018;29;20021;-62
2022/12/31 00:12:37;;;;;;;4.50;2.10;;;;;;;12.14;100.00;100262.69;4910328;29;20271;-62
2022/12/31 00:15:02;;;;;;;3.53;2.25;;;;;;;12.14;100.00;100257.47;4910010;29;20040;-62
2022/12/31 00:17:28;;;;;;;6.13;3.20;;;;;;;12.15;100.00;100264.44;4910003;29;20091;-69
2022/12/31 00:19:57;;;;;;;5.55;3.45;;;;;;;12.16;100.00;100255.72;4908611;29;20084;-69
2022/12/31 00:22:22;;;;;;;6.40;4.15;;;;;;;12.16;100.00;100257.47;4909806;29;20044;-68
2022/12/31 00:24:47;;;;;;;7.68;4.20;;;;;;;12.16;100.00;100263.56;4909865;29;20032;-69
2022/12/31 00:27:13;;;;;;;5.18;3.17;;;;;;;12.17;100.00;100267.06;4909909;29;20027;-69
2022/12/31 00:29:38;;;;;;;4.22;2.42;;;;;;;12.17;100.00;100267.94;4909809;29;20028;-69
2022/12/31 00:32:04;;;;;;;4.50;2.33;;;;;;;12.18;100.00;100258.38;4906160;29;20267;-69
2022/12/31 00:34:29;;;;;;;4.03;2.38;;;;;;;12.18;100.00;100250.53;4907875;29;20094;-69
2022/12/31 00:36:54;;;;;;;4.75;2.30;;;;;;;12.17;100.00;100239.19;4909591;29;20028;-69
2022/12/31 00:39:19;;;;;;;4.25;2.15;;;;;;;12.17;100.00;100246.19;4908297;29;20028;-69
2022/12/31 00:41:45;;;;;;;3.85;2.35;;;;;;;12.19;100.00;100244.44;4909134;29;20024;-69
2022/12/31 00:44:11;;;;;;;3.72;2.30;;;;;;;12.18;100.00;100243.56;4907027;29;20052;-69
2022/12/31 00:46:37;;;;;;;4.97;2.38;;;;;;;12.16;100.00;100249.63;4908403;29;20067;-69
2022/12/31 00:49:02;;;;;;;3.70;2.30;;;;;;;12.15;100.00;100246.16;4907291;29;20025;-70
2022/12/31 00:51:28;;;;;;;5.10;2.40;;;;;;;12.15;100.00;100248.78;4908537;29;20025;-69
2022/12/31 00:53:54;;;;;;;3.90;2.13;;;;;;;12.14;100.00;100241.78;4908725;29;20033;-69
2022/12/31 00:56:24;;;;;;;3.35;1.73;;;;;;;12.15;100.00;100247.88;4906615;29;20028;-68
2022/12/31 00:58:50;;;;;;;3.30;1.63;;;;;;;12.18;100.00;100240.09;4908662;29;20148;-69
2022/12/31 01:01:27;;;;;;;3.13;1.50;;;;;;;12.18;100.00;100227.03;4908925;29;20020;-69
2022/12/31 01:04:01;;;;;;;3.10;1.45;;;;;;;12.18;100.00;100227.03;4909096;29;20160;-68
2022/12/31 01:06:26;;;;;;;2.15;1.13;;;;;;;12.16;100.00;100224.38;4908678;29;20059;-68
2022/12/31 01:08:54;;;;;;;3.17;1.23;;;;;;;12.15;100.00;100225.28;4909108;29;20008;-68
2022/12/31 01:11:22;;;;;;;2.45;1.30;;;;;;;12.15;100.00;100242.66;4909088;29;20220;-68
2022/12/31 01:13:51;;;;;;;1.97;1.10;;;;;;;12.14;100.00;100235.72;4909003;29;20032;-68
2022/12/31 01:16:18;;;;;;;2.05;1.10;;;;;;;12.13;100.00;100223.50;4909044;29;20020;-68
2022/12/31 01:18:44;;;;;;;3.35;1.10;;;;;;;12.12;100.00;100221.75;4908797;29;20038;-68
2022/12/31 01:21:10;;;;;;;2.70;1.02;;;;;;;12.11;100.00;100217.41;4908860;29;20029;-68
2022/12/31 01:23:36;;;;;;;1.95;1.00;;;;;;;12.10;100.00;100213.03;4909189;29;20035;-68
2022/12/31 01:26:04;;;;;;;2.20;0.90;;;;;;;12.08;100.00;100215.66;4908774;29;20029;-68
2022/12/31 01:28:29;;;;;;;2.40;1.00;;;;;;;12.07;100.00;100228.69;4907558;29;20267;-68
2022/12/31 01:30:55;;;;;;;2.33;0.82;;;;;;;12.06;100.00;100232.16;4907054;29;20083;-68
2022/12/31 01:33:21;;;;;;;1.85;0.80;;;;;;;12.05;100.00;100238.22;4899412;29;20080;-68
2022/12/31 01:35:46;;;;;;;1.90;0.85;;;;;;;12.03;100.00;100239.97;4905554;29;20172;-68
2022/12/31 01:38:11;;;;;;;1.23;0.70;;;;;;;12.00;100.00;100240.81;4907419;29;20023;-68
2022/12/31 01:40:38;;;;;;;1.73;1.00;;;;;;;11.98;100.00;100237.31;4906588;29;20028;-68
2022/12/31 01:43:18;;;;;;;2.25;0.85;;;;;;;11.97;100.00;100240.78;4907302;29;20064;-68
2022/12/31 01:45:51;;;;;;;1.63;0.90;;;;;;;11.93;100.00;100242.50;4907187;29;20140;-68
2022/12/31 01:48:23;;;;;;;1.73;0.85;;;;;;;11.91;100.00;100249.41;4906148;29;20025;-68
2022/12/31 01:50:48;;;;;;;1.20;0.70;;;;;;;11.90;100.00;100252.00;4907177;29;20071;-69
2022/12/31 01:53:16;;;;;;;1.33;0.70;;;;;;;11.89;100.00;100271.13;4905871;29;20060;-68
2022/12/31 01:55:44;;;;;;;1.70;0.77;;;;;;;11.87;100.00;100288.53;4906514;29;20136;-69
2022/12/31 01:58:17;;;;;;;1.33;0.65;;;;;;;11.87;100.00;100296.38;4906910;29;20047;-69
2022/12/31 02:00:43;;;;;;;0.98;0.70;;;;;;;11.85;100.00;100309.41;4902549;29;20016;-68
2022/12/31 02:03:09;;;;;;;1.67;0.90;;;;;;;11.86;100.00;100281.56;4907028;29;20023;-68
2022/12/31 02:05:45;;;;;;;2.35;1.00;;;;;;;11.85;100.00;100238.94;4908112;29;20029;-69
2022/12/31 02:08:11;;;;;;;1.73;1.00;;;;;;;11.87;100.00;100262.44;4908132;29;20072;-68
2022/12/31 02:10:36;;;;;;;1.52;1.00;;;;;;;11.84;100.00;100252.84;4908051;29;20024;-68
2022/12/31 02:13:02;;;;;;;2.05;1.10;;;;;;;11.84;100.00;100263.28;4908182;29;20020;-68
2022/12/31 02:15:47;;;;;;;1.77;1.00;;;;;;;11.85;100.00;100259.81;4907976;29;20052;-68
2022/12/31 02:18:22;;;;;;;2.20;1.20;;;;;;;11.86;100.00;100269.41;4907187;29;20110;-68
2022/12/31 02:21:18;;;;;;;2.78;1.40;;;;;;;11.86;100.00;100274.63;4907782;29;20072;-68
2022/12/31 02:24:19;;;;;;;2.55;1.33;;;;;;;11.86;100.00;100285.06;4907781;29;20347;-68
2022/12/31 02:27:17;;;;;;;2.72;1.42;;;;;;;11.88;100.00;100295.53;4907967;29;20055;-68
2022/12/31 02:30:07;;;;;;;2.88;1.60;;;;;;;11.87;100.00;100302.44;4908002;29;20275;-68
2022/12/31 02:32:44;;;;;;;3.80;1.70;;;;;;;11.88;100.00;100305.97;4894395;29;20025;-68
2022/12/31 02:35:16;;;;;;;3.30;2.00;;;;;;;11.88;100.00;100314.66;4906400;29;20013;-68
2022/12/31 02:37:45;;;;;;;3.67;1.83;;;;;;;11.88;100.00;100303.34;4907561;29;20032;-68
2022/12/31 02:40:14;;;;;;;2.97;1.77;;;;;;;11.87;100.00;100302.44;4907990;29;20052;-68
2022/12/31 02:42:39;;;;;;;3.00;1.77;;;;;;;11.88;100.00;100308.56;4906323;29;20039;-68
2022/12/31 02:45:06;;;;;;;3.28;1.92;;;;;;;11.87;100.00;100320.72;4904674;29;20088;-68
2022/12/31 02:47:34;;;;;;;3.45;1.98;;;;;;;11.87;100.00;100314.66;4906419;29;20263;-69
2022/12/31 02:50:10;;;;;;;3.67;1.90;;;;;;;11.86;100.00;100319.00;4907358;29;20300;-68
2022/12/31 02:52:53;;;;;;;4.10;2.50;;;;;;;11.85;100.00;100312.03;4906667;29;20278;-68
2022/12/31 02:55:26;;;;;;;3.80;2.05;;;;;;;11.83;100.00;100298.06;4905276;29;20256;-68
2022/12/31 02:58:06;;;;;;;3.85;2.20;;;;;;;11.83;100.00;100292.84;4903384;29;20028;-68
2022/12/31 03:03:25;;;;;;;3.53;2.10;;;;;;;11.79;100.00;100297.16;4906874;29;20027;-69
2022/12/31 03:05:50;;;;;;;3.63;1.98;;;;;;;11.77;100.00;100300.63;4907578;29;20025;-68
2022/12/31 03:08:21;;;;;;;3.35;1.98;;;;;;;11.75;100.00;100294.53;4907517;29;20032;-68
2022/12/31 03:10:46;;;;;;;3.45;1.98;;;;;;;11.73;100.00;100291.00;4906449;29;20020;-68
2022/12/31 03:13:11;;;;;;;5.15;2.35;;;;;;;11.74;100.00;100287.53;4907384;29;20024;-68
2022/12/31 03:15:37;;;;;;;4.13;2.20;;;;;;;11.74;100.00;100279.72;4906600;29;20040;-68
2022/12/31 03:18:12;;;;;;;3.70;2.22;;;;;;;11.74;100.00;100282.31;4907663;29;20032;-62
2022/12/31 03:23:34;;;;;;;3.15;1.70;;;;;;;11.73;100.00;100275.34;4905816;29;20047;-62
2022/12/31 03:26:00;;;;;;;3.67;1.85;;;;;;;11.72;100.00;100273.63;4905444;29;20031;-61
2022/12/31 03:28:28;;;;;;;3.40;1.77;;;;;;;11.70;100.00;100262.28;4907813;29;20120;-62
2022/12/31 03:30:56;;;;;;;3.72;1.67;;;;;;;11.69;100.00;100261.41;4910788;29;20020;-62
2022/12/31 03:33:22;;;;;;;2.75;1.40;;;;;;;11.69;100.00;100255.28;4904284;29;20227;-62
2022/12/31 03:35:48;;;;;;;3.22;1.73;;;;;;;11.66;100.00;100259.63;4913625;29;20025;-62
2022/12/31 03:38:14;;;;;;;3.25;1.63;;;;;;;11.68;100.00;100250.97;4910083;29;20107;-62
2022/12/31 03:40:43;;;;;;;3.60;1.60;;;;;;;11.66;100.00;100245.72;4915367;29;20104;-62
2022/12/31 03:43:08;;;;;;;2.78;1.50;;;;;;;11.66;100.00;100249.19;4908873;29;20064;-62
2022/12/31 03:45:34;;;;;;;3.47;1.60;;;;;;;11.64;100.00;100239.59;4908846;29;20099;-61
2022/12/31 03:48:01;;;;;;;2.80;1.60;;;;;;;11.63;100.00;100243.94;4909241;29;20048;-62
2022/12/31 03:50:26;;;;;;;3.15;1.60;;;;;;;11.63;100.00;100241.34;4908210;29;20012;-62
2022/12/31 03:52:52;;;;;;;3.17;1.50;;;;;;;11.62;100.00;100236.97;4908532;29;20347;-62
2022/12/31 03:55:17;;;;;;;3.00;1.27;;;;;;;11.64;100.00;100240.50;4908737;29;20104;-62
2022/12/31 03:57:43;;;;;;;2.60;1.25;;;;;;;11.63;100.00;100235.25;4907500;29;20140;-62
2022/12/31 04:00:11;;;;;;;2.55;1.27;;;;;;;11.62;100.00;100231.75;4908757;29;20036;-62
2022/12/31 04:02:36;;;;;;;3.70;1.30;;;;;;;11.62;100.00;100234.38;4909794;29;20032;-62
2022/12/31 04:05:02;;;;;;;3.05;1.20;;;;;;;11.62;100.00;100239.59;4907402;29;20012;-62
2022/12/31 04:07:27;;;;;;;2.25;1.10;;;;;;;11.61;100.00;100230.00;4909731;29;20191;-62
2022/12/31 04:09:52;;;;;;;2.60;1.15;;;;;;;11.61;100.00;100234.34;4909207;29;20095;-62
2022/12/31 04:12:18;;;;;;;1.60;0.80;;;;;;;11.63;100.00;100228.28;4906329;29;20025;-62
2022/12/31 04:14:43;;;;;;;1.63;0.70;;;;;;;11.65;100.00;100236.13;4910002;29;20032;-62
2022/12/31 04:17:08;;;;;;;2.22;0.98;;;;;;;11.68;100.00;100224.84;4909977;29;20028;-62
2022/12/31 04:19:33;;;;;;;1.38;0.75;;;;;;;11.70;100.00;100229.22;4908573;29;20024;-62
2022/12/31 04:21:59;;;;;;;1.50;0.80;;;;;;;11.74;100.00;100231.00;4910004;29;20029;-62
2022/12/31 04:24:24;;;;;;;2.15;0.90;;;;;;;11.77;100.00;100224.94;4910145;29;20049;-61
2022/12/31 04:26:50;;;;;;;1.67;0.70;;;;;;;11.81;100.00;100221.47;4909939;29;20178;-68
2022/12/31 04:29:15;;;;;;;2.15;0.80;;;;;;;11.87;100.00;100231.97;4909675;29;20298;-68
2022/12/31 04:31:41;;;;;;;3.47;1.10;;;;;;;11.96;100.00;100215.53;4907837;29;20041;-68
2022/12/31 04:34:06;;;;;;;3.60;0.90;;;;;;;12.03;100.00;100217.34;4909786;29;20039;-68
2022/12/31 04:36:32;;;;;;;2.08;0.85;;;;;;;12.11;100.00;100210.44;4909651;29;20016;-68
2022/12/31 04:38:58;;;;;;;3.10;1.02;;;;;;;12.15;100.00;100198.25;4909818;29;20028;-68
2022/12/31 04:41:25;;;;;;;2.22;0.82;;;;;;;12.24;100.00;100180.06;4907930;29;20031;-68
2022/12/31 04:43:56;;;;;;;4.97;1.00;;;;;;;12.36;100.00;100181.84;4906911;29;21106;-68
2022/12/31 04:46:27;;;;;;;4.47;1.05;;;;;;;12.47;100.00;100226.31;4908644;29;20043;-69
2022/12/31 04:48:53;;;;;;;3.92;1.00;;;;;;;12.56;100.00;100247.31;4907857;29;20283;-69
2022/12/31 04:51:20;;;;;;;3.55;1.40;;;;;;;12.52;100.00;100242.91;4907682;29;20021;-69
2022/12/31 04:53:46;;;;;;;4.13;1.83;;;;;;;12.41;100.00;100226.28;4907881;29;20021;-68
2022/12/31 04:56:11;;;;;;;3.13;1.05;;;;;;;12.40;100.00;100228.03;4907607;29;20027;-68
2022/12/31 04:58:37;;;;;;;4.43;1.17;;;;;;;12.47;100.00;100234.16;4906998;29;20040;-68
2022/12/31 05:01:03;;;;;;;2.92;0.90;;;;;;;12.63;100.00;100246.47;4907376;29;20096;-69
2022/12/31 05:03:29;;;;;;;4.30;1.10;;;;;;;12.78;100.00;100248.28;4907895;29;20032;-68
2022/12/31 05:06:03;;;;;;;3.65;1.42;;;;;;;12.95;100.00;100232.69;4908182;29;20186;-69
2022/12/31 05:08:28;;;;;;;3.53;0.88;;;;;;;13.07;100.00;100251.91;4908163;29;20048;-68
2022/12/31 05:10:54;;;;;;;2.83;1.30;;;;;;;13.18;100.00;100255.44;4908937;29;20076;-68
2022/12/31 05:13:20;;;;;;;2.83;0.90;;;;;;;13.28;100.00;100256.31;4906529;29;20044;-68
2022/12/31 05:15:46;;;;;;;3.33;0.85;;;;;;;13.34;100.00;100253.75;4905755;29;20028;-69
2022/12/31 05:18:11;;;;;;;3.00;0.70;;;;;;;13.37;100.00;100243.31;4908279;29;20147;-69
2022/12/31 05:20:36;;;;;;;3.28;0.70;;;;;;;13.41;100.00;100254.63;4907639;29;20040;-68
2022/12/31 05:23:02;;;;;;;3.42;0.77;;;;;;;13.44;100.00;100262.50;4907014;29;20036;-69
2022/12/31 05:25:27;;;;;;;2.58;0.70;;;;;;;13.52;100.00;100266.00;4906291;29;20024;-69
2022/12/31 05:27:53;;;;;;;1.92;0.70;;;;;;;13.66;100.00;100258.19;4908177;29;20269;-69
2022/12/31 05:30:18;;;;;;;3.67;0.82;;;;;;;13.73;100.00;100270.44;4907214;29;20020;-69
2022/12/31 05:32:44;;;;;;;2.30;0.75;;;;;;;13.75;100.00;100271.28;4901663;29;20271;-68
2022/12/31 05:35:10;;;;;;;1.40;0.60;;;;;;;13.75;100.00;100289.63;4907327;29;20028;-68
2022/12/31 05:37:36;;;;;;;2.53;0.60;;;;;;;13.76;100.00;100286.13;4913276;29;20168;-69
2022/12/31 05:40:01;;;;;;;4.47;0.80;;;;;;;13.72;100.00;100287.00;4907259;29;20024;-68
2022/12/31 05:42:27;;;;;;;2.33;0.60;;;;;;;13.67;100.00;100287.00;4907510;29;20099;-68
2022/12/31 05:44:52;;;;;;;2.38;0.90;;;;;;;13.62;100.00;100283.47;4905374;29;20088;-68
2022/12/31 05:47:18;;;;;;;3.08;0.70;;;;;;;13.59;100.00;100286.09;4902989;29;20020;-69
2022/12/31 05:49:43;;;;;;;1.45;0.60;;;;;;;13.61;100.00;100291.34;4907801;29;20028;-68
2022/12/31 05:52:09;;;;;;;2.35;0.60;;;;;;;13.64;100.00;100284.34;4907672;29;20044;-68
2022/12/31 05:54:35;;;;;;;3.17;0.70;;;;;;;13.65;100.00;100287.84;4907845;29;20037;-69
2022/12/31 05:57:00;;;;;;;2.97;0.70;;;;;;;13.72;100.00;100277.38;4902976;29;20035;-69
2022/12/31 05:59:26;;;;;;;1.35;0.45;;;;;;;13.77;100.00;100273.91;4907076;29;20056;-69
2022/12/31 06:01:51;;;;;;;3.80;0.82;;;;;;;13.83;100.00;100260.81;4906436;29;20021;-69
2022/12/31 06:04:16;;;;;;;1.50;0.50;;;;;;;13.87;100.00;100257.31;4907534;29;20024;-69
2022/12/31 06:06:42;;;;;;;4.47;0.70;;;;;;;13.91;100.00;100282.66;4905902;29;20048;-70
2022/12/31 06:09:07;;;;;;;2.13;0.70;;;;;;;13.97;100.00;100287.88;4906927;29;20177;-69
2022/12/31 06:11:32;;;;;;;2.22;0.55;;;;;;;14.00;100.00;100273.94;4907464;29;20052;-69
2022/12/31 06:13:58;;;;;;;3.08;0.50;;;;;;;14.04;100.00;100289.63;4908112;29;20056;-69
2022/12/31 06:16:23;;;;;;;1.63;0.65;;;;;;;14.09;100.00;100287.91;4907877;29;20251;-69
2022/12/31 06:18:49;;;;;;;1.10;0.45;;;;;;;14.16;100.00;100306.25;4908188;29;20076;-69
2022/12/31 06:21:16;;;;;;;2.40;0.52;;;;;;;14.24;100.00;100307.97;4907886;29;20028;-69
2022/12/31 06:23:42;;;;;;;2.35;0.57;;;;;;;14.32;100.00;100312.34;4908169;29;20028;-69
2022/12/31 06:26:07;;;;;;;1.42;0.50;;;;;;;14.34;100.00;100306.25;4907894;29;20052;-68
2022/12/31 06:28:33;;;;;;;1.58;0.52;;;;;;;14.38;100.00;100312.34;4907979;29;20024;-68
2022/12/31 06:31:04;;;;;;;1.92;0.60;;;;;;;14.43;99.85;100319.34;4908437;29;20084;-69
2022/12/31 06:33:30;;;;;;;3.03;0.80;;;;;;;14.51;99.71;100323.69;4903160;29;20068;-68
2022/12/31 06:35:56;;;;;;;2.90;0.60;;;;;;;14.55;98.76;100305.31;4910955;29;20016;-69
2022/12/31 06:38:23;;;;;;;2.90;0.50;;;;;;;14.59;98.33;100314.94;4908001;29;20252;-68
2022/12/31 06:40:48;;;;;;;2.78;0.60;;;;;;;14.69;97.03;100313.22;4907864;29;20021;-69
2022/12/31 06:43:14;;;;;;;2.05;0.57;;;;;;;14.81;96.21;100309.69;4906660;29;20335;-69
2022/12/31 06:45:39;;;;;;;1.80;0.52;;;;;;;14.83;96.50;100300.09;4905168;29;20048;-68
2022/12/31 06:48:05;;;;;;;2.72;0.60;;;;;;;14.85;96.12;100306.19;4905600;29;20032;-69
2022/12/31 06:50:30;;;;;;;1.95;0.68;;;;;;;14.85;96.38;100316.69;4907234;29;20025;-68
2022/12/31 06:52:56;;;;;;;2.78;0.50;;;;;;;14.86;95.92;100320.16;4906446;29;20096;-68
2022/12/31 06:55:21;;;;;;;1.58;0.63;;;;;;;14.82;96.54;100307.97;4906470;29;20024;-68
2022/12/31 06:57:47;;;;;;;2.63;0.60;;;;;;;14.80;96.12;100309.69;4906421;29;20024;-68
2022/12/31 07:00:14;;;;;;;2.70;0.60;;;;;;;14.86;95.44;100314.91;4906134;29;20314;-69
2022/12/31 07:03:07;;;;;;;2.75;0.68;;;;;;;14.86;96.27;100322.78;4907615;29;20039;-68
2022/12/31 07:05:46;;;;;;;2.25;0.70;;;;;;;14.89;95.63;100313.19;4909231;29;20028;-69
2022/12/31 07:08:24;;;;;;;3.65;0.70;;;;;;;14.93;95.24;100327.13;4910038;29;20029;-68
2022/12/31 07:11:06;;;;;;;6.47;0.80;;;;;;;14.97;94.47;100294.78;4909351;29;20045;-69
2022/12/31 07:14:10;;;;;;;2.88;0.60;;;;;;;15.01;94.89;100309.63;4903100;29;20036;-69
2022/12/31 07:16:47;;;;;;;3.28;0.90;;;;;;;15.00;94.95;100315.75;4909217;29;20036;-68
2022/12/31 07:19:21;;;;;;;4.97;0.75;;;;;;;14.95;95.17;100313.16;4908780;29;20408;-68
2022/12/31 07:21:48;;;;;;;2.17;0.70;;;;;;;14.89;95.53;100312.31;4909331;29;20029;-68
2022/12/31 07:24:13;;;;;;;4.18;0.88;;;;;;;14.88;95.29;100319.28;4909414;29;20024;-68
2022/12/31 07:26:45;;;;;;;4.57;0.85;;;;;;;14.86;95.86;100325.41;4910072;29;20032;-61
2022/12/31 07:29:16;;;;;;;5.93;0.90;;;;;;;14.88;95.11;100321.91;4909069;29;20039;-61
2022/12/31 07:32:09;;;;;;;3.85;1.08;;;;;;;14.87;96.20;100338.53;4908623;29;20292;-62
2022/12/31 07:34:56;;;;;;;4.80;0.93;;;;;;;14.87;95.43;100329.78;4907651;29;20032;-61
2022/12/31 07:37:43;;;;;;;2.95;0.70;;;;;;;14.84;95.50;100335.91;4909650;29;20084;-61
2022/12/31 07:40:28;;;;;;;3.45;0.80;;;;;;;14.85;95.65;100326.31;4909331;29;20076;-61
2022/12/31 07:43:33;;;;;;;2.25;0.90;;;;;;;14.88;96.38;100326.28;4905557;29;20168;-61
2022/12/31 07:46:11;;;;;;;5.45;0.77;;;;;;;14.92;94.76;100322.78;4905148;29;20048;-61
2022/12/31 07:48:36;;;;;;;3.08;0.95;;;;;;;14.89;95.31;100335.94;4907599;29;20028;-61
2022/12/31 07:51:02;;;;;;;5.47;0.90;;;;;;;14.88;95.30;100334.16;4908602;29;20049;-61
2022/12/31 07:53:28;;;;;;;3.75;0.98;;;;;;;14.84;96.78;100342.91;4910015;29;20091;-61
2022/12/31 07:55:59;;;;;;;3.63;1.00;;;;;;;14.73;98.32;100333.31;4909912;29;20103;-61
2022/12/31 07:58:42;;;;;;;2.80;0.73;;;;;;;14.64;98.54;100335.94;4910260;29;20024;-61
2022/12/31 08:01:10;;;;;;;3.78;0.85;;;;;;;14.58;98.81;100335.91;4904982;29;20139;-61
2022/12/31 08:04:04;;;;;;;3.50;1.00;;;;;;;14.57;98.88;100339.41;4909890;29;20024;-61
2022/12/31 08:06:48;;;;;;;1.85;0.88;;;;;;;14.56;98.59;100348.16;4909522;29;20088;-61
2022/12/31 08:09:37;;;;;;;2.47;0.80;;;;;;;14.55;99.44;100347.28;4907746;29;20304;-61
2022/12/31 08:12:02;;;;;;;;;;;;;;;14.54;99.73;100365.63;4909874;29;20044;-61
2022/12/31 08:14:29;;;;;;;3.92;0.90;;;;;;;14.47;100.00;100369.13;4909774;29;19899;-61
2022/12/31 08:16:55;;;;;;;3.60;0.90;;;;;;;14.41;100.00;100375.25;4909259;29;20043;-61
2022/12/31 08:19:25;;;;;;;4.47;0.98;;;;;;;14.35;100.00;100375.25;4910044;29;20182;-61
2022/12/31 08:21:59;;;;;;;2.25;0.85;;;;;;;14.31;100.00;100405.84;4909912;29;20052;-61
2022/12/31 08:25:01;;;;;;;3.92;1.00;;;;;;;14.27;100.00;100404.09;4910051;29;20257;-61
2022/12/31 08:27:36;;;;;;;1.85;0.70;;;;;;;14.29;100.00;100404.94;4909970;29;20013;-69
2022/12/31 08:30:08;;;;;;;3.90;0.90;;;;;;;14.30;100.00;100408.47;4909611;29;20020;-69
2022/12/31 08:32:52;;;;;;;2.72;0.80;;;;;;;14.33;100.00;100448.63;4903496;29;20044;-69
2022/12/31 08:35:29;;;;;;;4.10;0.90;;;;;;;14.42;99.80;100440.81;4915437;29;20071;-69
2022/12/31 08:38:10;;;;;;;2.90;0.90;;;;;;;14.50;99.42;100442.56;4909820;29;20048;-69
2022/12/31 08:40:38;;;;;;;1.50;0.90;;;;;;;14.54;98.29;100452.16;4909556;29;20095;-70
2022/12/31 08:43:34;;;;;;;2.42;0.80;;;;;;;14.58;98.57;100454.81;4909320;29;20068;-69
2022/12/31 08:45:59;;;;;;;4.70;0.90;;;;;;;14.59;99.24;100460.91;4908199;29;20435;-69
2022/12/31 08:48:42;;;;;;;4.05;1.25;;;;;;;14.52;100.00;100467.03;4908210;29;20252;-69
2022/12/31 08:51:17;;;;;;;2.53;0.90;;;;;;;14.49;99.69;100467.03;4908271;29;20675;-69
2022/12/31 08:53:43;;;;;;;3.00;1.10;;;;;;;14.49;99.30;100478.38;4906931;29;20024;-69
2022/12/31 08:56:26;;;;;;;2.70;1.00;;;;;;;14.50;99.43;100480.13;4908305;29;20047;-69
2022/12/31 08:59:14;;;;;;;3.50;0.90;;;;;;;14.53;98.25;100482.75;4906088;29;20247;-69
2022/12/31 09:02:00;;;;;;;3.90;1.00;;;;;;;14.53;98.77;100490.63;4903783;29;20072;-69
2022/12/31 09:04:58;;;;;;;2.47;0.85;;;;;;;14.57;98.34;100504.59;4898084;29;20099;-69
2022/12/31 09:07:48;;;;;;;2.73;1.00;;;;;;;14.59;98.74;100516.84;4899584;29;20067;-69
2022/12/31 09:10:23;;;;;;;3.60;1.00;;;;;;;14.58;98.25;100512.47;4897386;29;20025;-68
2022/12/31 09:12:51;;;;;;;3.97;1.20;;;;;;;14.56;98.88;100535.19;4899682;29;20048;-68
2022/12/31 09:15:25;;;;;;;4.28;1.38;;;;;;;14.53;99.76;100526.44;4903712;29;20040;-69
2022/12/31 09:17:51;;;;;;;3.53;1.10;;;;;;;14.46;100.00;100530.78;4899544;29;20063;-69
2022/12/31 09:20:23;;;;;;;3.53;1.10;;;;;;;14.43;100.00;100536.03;4899584;29;21065;-69
2022/12/31 09:22:50;;;;;;;2.88;1.25;;;;;;;14.36;100.00;100553.47;4903075;29;20136;-69
2022/12/31 09:25:17;;;;;;;4.18;1.10;;;;;;;14.28;100.00;100570.94;4900789;29;20104;-69
2022/12/31 09:27:48;;;;;;;4.63;1.20;;;;;;;14.18;100.00;100566.50;4901698;29;20227;-69
2022/12/31 09:30:15;;;;;;;3.17;1.20;;;;;;;14.08;100.00;100576.97;4908670;29;20028;-69
2022/12/31 09:33:01;;;;;;;5.35;1.10;;;;;;;14.01;100.00;100569.94;4907894;29;20051;-70
2022/12/31 09:35:36;;;;;;;4.82;1.60;;;;;;;13.98;100.00;100563.81;4907946;29;20095;-68
2022/12/31 09:38:24;;;;;;;3.60;1.30;;;;;;;13.94;100.00;100573.38;4908001;29;20039;-65
2022/12/31 09:41:15;;;;;;;4.37;1.30;;;;;;;13.94;100.00;100583.00;4907582;29;20040;-61
2022/12/31 09:44:07;;;;;;;4.72;1.30;;;;;;;13.91;100.00;100573.38;4903455;29;20044;-61
2022/12/31 09:47:09;;;;;;;3.45;1.10;;;;;;;13.90;100.00;100572.50;4907570;29;20037;-61
2022/12/31 09:50:03;;;;;;;3.80;1.02;;;;;;;13.92;100.00;100572.53;4899241;29;20032;-61
2022/12/31 09:52:51;;;;;;;4.50;1.17;;;;;;;13.95;100.00;100569.91;4907495;29;20016;-61
2022/12/31 09:55:38;;;;;;;4.85;1.40;;;;;;;14.04;100.00;100574.31;4908545;29;20028;-61
2022/12/31 09:58:29;;;;;;;4.47;1.52;;;;;;;14.07;100.00;100569.97;4906607;29;20044;-61
2022/12/31 10:01:02;;;;;;;5.03;1.58;;;;;;;14.12;100.00;100579.59;4906492;29;20032;-61
2022/12/31 10:03:43;;;;;;;4.90;1.70;;;;;;;14.14;100.00;100575.25;4910428;29;20036;-61
2022/12/31 10:06:08;;;;;;;4.18;1.30;;;;;;;14.19;100.00;100578.75;4898518;29;20039;-69
2022/12/31 10:08:50;;;;;;;3.10;1.23;;;;;;;14.23;100.00;100564.78;4906105;29;20028;-69
2022/12/31 10:11:22;;;;;;;4.75;1.23;;;;;;;14.29;100.00;100575.28;4902421;29;20333;-68
2022/12/31 10:14:02;;;;;;;5.88;1.45;;;;;;;14.37;100.00;100583.22;4906071;29;20032;-68
2022/12/31 10:16:45;;;;;;;4.63;1.27;;;;;;;14.42;100.00;100584.09;4906843;29;20278;-68
2022/12/31 10:19:29;;;;;;;4.60;1.40;;;;;;;14.42;100.00;100571.88;4904115;29;20040;-69
2022/12/31 10:22:21;;;;;;;8.13;1.65;;;;;;;14.46;100.00;100566.63;4905311;29;20037;-70
2022/12/31 10:25:08;;;;;;;4.82;1.50;;;;;;;14.46;100.00;100577.97;4902061;29;20033;-68
2022/12/31 10:27:43;;;;;;;5.28;1.70;;;;;;;14.48;100.00;100583.22;4906521;29;20029;-68
2022/12/31 10:30:15;;;;;;;4.95;1.77;;;;;;;14.48;100.00;100567.50;4903935;29;20175;-69
2022/12/31 10:32:59;;;;;;;5.20;1.60;;;;;;;14.47;100.00;100565.75;4905668;29;20031;-68
2022/12/31 10:36:03;;;;;;;5.03;1.33;;;;;;;14.51;100.00;100551.78;4908382;29;20192;-68
2022/12/31 10:38:31;;;;;;;4.15;1.63;;;;;;;14.52;100.00;100549.16;4900913;29;20064;-68
2022/12/31 10:41:15;;;;;;;5.53;1.50;;;;;;;14.53;100.00;100552.69;4913955;29;20013;-68
2022/12/31 10:44:11;;;;;;;5.40;1.60;;;;;;;14.55;100.00;100553.53;4906853;29;20037;-68
2022/12/31 10:46:57;;;;;;;3.20;1.38;;;;;;;14.59;100.00;100557.94;4910105;29;20057;-68
2022/12/31 10:49:51;;;;;;;4.18;1.33;;;;;;;14.63;99.93;100559.72;4911183;29;20323;-68
2022/12/31 10:52:29;;;;;;;5.07;1.60;;;;;;;14.66;98.99;100572.84;4905350;29;20312;-61
2022/12/31 10:55:26;;;;;;;8.32;1.70;;;;;;;14.68;98.57;100578.09;4904751;29;20220;-61
2022/12/31 10:58:04;;;;;;;6.28;1.30;;;;;;;14.71;98.05;100572.84;4909676;29;20024;-60
2022/12/31 11:00:38;;;;;;;6.65;1.70;;;;;;;14.76;96.83;100577.22;4907455;29;20032;-61
2022/12/31 11:03:41;;;;;;;4.05;1.98;;;;;;;14.87;96.17;100579.00;4904498;29;20237;-61
2022/12/31 11:06:34;;;;;;;4.43;1.40;;;;;;;14.91;95.96;100580.75;4903218;29;20103;-61
2022/12/31 11:09:14;;;;;;;3.92;1.33;;;;;;;14.94;94.53;100594.72;4904631;29;20028;-60
2022/12/31 11:12:11;;;;;;;5.70;1.50;;;;;;;14.99;94.29;100588.63;4907557;29;20032;-61
2022/12/31 11:14:57;;;;;;;5.00;1.60;;;;;;;15.02;93.64;100592.13;4904658;29;20257;-60
2022/12/31 11:17:51;;;;;;;4.55;1.50;;;;;;;15.05;93.04;100591.28;4903322;29;20025;-61
2022/12/31 11:20:50;;;;;;;6.22;1.40;;;;;;;15.09;94.00;100580.78;4910084;29;20031;-60
2022/12/31 11:23:44;;;;;;;8.13;1.67;;;;;;;15.08;92.90;100580.78;4910576;29;20020;-61
2022/12/31 11:26:39;;;;;;;8.07;1.98;;;;;;;15.09;94.05;100575.53;4910592;29;20321;-61
2022/12/31 11:29:17;;;;;;;4.88;1.70;;;;;;;15.17;90.95;100577.28;4910267;29;20063;-61
2022/12/31 11:32:01;;;;;;;4.90;1.63;;;;;;;15.20;91.95;100598.28;4909807;29;20028;-62
2022/12/31 11:34:41;;;;;;;4.78;1.60;;;;;;;15.23;91.31;100598.28;4910277;29;20374;-61
2022/12/31 11:37:44;;;;;;;4.65;1.38;;;;;;;15.23;91.53;100582.53;4909464;29;20170;-68
2022/12/31 11:40:31;;;;;;;4.10;1.38;;;;;;;15.27;89.92;100602.66;4901763;29;20012;-68
2022/12/31 11:43:09;;;;;;;5.45;1.70;;;;;;;15.26;90.53;100601.75;4907231;29;20072;-68
2022/12/31 11:45:52;;;;;;;6.37;1.63;;;;;;;15.23;91.47;100609.63;4901181;29;20080;-68
2022/12/31 11:48:42;;;;;;;5.90;1.50;;;;;;;15.21;91.55;100597.41;4910040;29;20284;-68
2022/12/31 11:51:34;;;;;;;7.40;1.60;;;;;;;15.19;91.40;100602.63;4909146;29;20024;-68